createdAt,value
2019-05-15T00:02:10.623Z,1.65
2019-05-15T00:04:38.918Z,1.70
2019-05-15T00:07:10.245Z,2.20
2019-05-15T00:09:41.997Z,2.10
2019-05-15T00:12:13.463Z,2.20
2019-05-15T00:14:44.696Z,1.80
2019-05-15T00:17:15.894Z,2.20
2019-05-15T00:19:48.603Z,2.10
2019-05-15T00:22:19.866Z,2.30
2019-05-15T00:24:51.127Z,1.92
2019-05-15T00:27:22.538Z,2.00
2019-05-15T00:29:53.796Z,2.08
2019-05-15T00:32:25.147Z,2.00
2019-05-15T00:34:58.279Z,1.75
2019-05-15T00:37:29.648Z,1.82
2019-05-15T00:40:01.027Z,1.92
2019-05-15T00:42:32.355Z,1.90
2019-05-15T00:45:03.723Z,2.08
2019-05-15T00:47:35.029Z,1.90
2019-05-15T00:50:08.731Z,1.80
2019-05-15T00:52:40.390Z,2.50
2019-05-15T00:55:12.769Z,2.00
2019-05-15T00:57:44.081Z,2.05
2019-05-15T01:00:15.546Z,1.87
2019-05-15T01:02:48.666Z,1.82
2019-05-15T01:05:19.724Z,1.92
2019-05-15T01:07:50.778Z,1.70
2019-05-15T01:10:22.077Z,1.85
2019-05-15T01:12:53.289Z,2.02
2019-05-15T01:15:24.578Z,1.70
2019-05-15T01:17:55.748Z,1.90
2019-05-15T01:20:28.577Z,1.70
2019-05-15T01:22:59.928Z,2.02
2019-05-15T01:25:31.060Z,1.98
2019-05-15T01:28:02.284Z,1.70
2019-05-15T01:30:33.769Z,1.85
2019-05-15T01:33:05.069Z,1.72
2019-05-15T01:35:38.390Z,1.60
2019-05-15T01:38:09.166Z,1.80
2019-05-15T01:40:40.267Z,1.90
2019-05-15T01:43:11.498Z,1.98
2019-05-15T01:45:42.834Z,1.60
2019-05-15T01:48:14.435Z,1.72
2019-05-15T01:50:45.619Z,1.52
2019-05-15T01:53:18.726Z,1.50
2019-05-15T01:55:49.969Z,1.70
2019-05-15T01:58:21.398Z,1.57
2019-05-15T02:00:52.594Z,1.50
2019-05-15T02:03:23.792Z,1.60
2019-05-15T02:05:55.112Z,1.52
2019-05-15T02:08:28.534Z,1.30
2019-05-15T02:10:59.133Z,1.32
2019-05-15T02:13:30.460Z,1.40
2019-05-15T02:16:01.859Z,1.60
2019-05-15T02:18:33.091Z,2.00
2019-05-15T02:21:06.662Z,1.70
2019-05-15T02:23:38.791Z,1.80
2019-05-15T02:26:11.290Z,2.00
2019-05-15T02:28:42.645Z,1.62
2019-05-15T02:31:13.890Z,1.50
2019-05-15T02:33:45.339Z,1.50
2019-05-15T02:36:20.221Z,1.57
2019-05-15T02:38:49.435Z,1.55
2019-05-15T02:41:20.611Z,1.30
2019-05-15T02:43:51.906Z,1.10
2019-05-15T02:46:23.470Z,1.40
2019-05-15T02:48:54.652Z,1.27
2019-05-15T02:51:25.842Z,1.20
2019-05-15T02:53:58.546Z,1.10
2019-05-15T02:56:29.487Z,1.10
2019-05-15T02:59:00.645Z,1.17
2019-05-15T03:01:31.831Z,1.10
2019-05-15T03:04:03.085Z,1.10
2019-05-15T03:06:34.329Z,0.95
2019-05-15T03:09:09.471Z,1.05
2019-05-15T03:11:41.022Z,1.10
2019-05-15T03:14:12.250Z,1.15
2019-05-15T03:16:43.498Z,0.95
2019-05-15T03:19:14.784Z,1.10
2019-05-15T03:21:49.383Z,1.07
2019-05-15T03:24:19.571Z,1.20
2019-05-15T03:26:50.720Z,1.10
2019-05-15T03:29:22.248Z,1.07
2019-05-15T03:32:05.876Z,0.95
2019-05-15T03:34:30.809Z,1.05
2019-05-15T03:36:56.298Z,0.72
2019-05-15T03:39:29.410Z,0.90
2019-05-15T03:41:58.919Z,0.90
2019-05-15T03:44:30.455Z,1.20
2019-05-15T03:47:00.787Z,1.40
2019-05-15T03:49:31.214Z,1.20
2019-05-15T03:52:02.466Z,1.10
2019-05-15T03:54:32.978Z,1.00
2019-05-15T03:57:03.378Z,1.20
2019-05-15T03:59:33.701Z,1.07
2019-05-15T04:02:04.137Z,0.90
2019-05-15T04:04:34.473Z,1.00
2019-05-15T04:07:09.012Z,1.10
2019-05-15T04:09:38.772Z,1.50
2019-05-15T04:12:09.574Z,1.20
2019-05-15T04:14:40.851Z,1.30
2019-05-15T04:17:12.081Z,1.22
2019-05-15T04:19:43.578Z,1.10
2019-05-15T04:22:14.921Z,1.22
2019-05-15T04:24:49.552Z,1.10
2019-05-15T04:27:21.062Z,1.05
2019-05-15T04:29:52.186Z,0.80
2019-05-15T04:32:23.434Z,0.98
2019-05-15T04:34:55.005Z,1.05
2019-05-15T04:37:29.637Z,1.35
2019-05-15T04:39:59.729Z,1.05
2019-05-15T04:42:31.406Z,0.90
2019-05-15T04:45:02.262Z,1.00
2019-05-15T04:47:33.355Z,0.88
2019-05-15T04:50:03.476Z,1.30
2019-05-15T04:52:34.775Z,0.98
2019-05-15T04:55:09.699Z,1.22
2019-05-15T04:57:40.000Z,1.40
2019-05-15T05:00:13.739Z,0.88
2019-05-15T05:02:45.131Z,0.90
2019-05-15T05:05:18.789Z,0.90
2019-05-15T05:07:49.199Z,0.70
2019-05-15T05:10:19.792Z,0.82
2019-05-15T05:12:51.158Z,1.20
2019-05-15T05:15:22.904Z,0.70
2019-05-15T05:17:54.892Z,0.93
2019-05-15T05:20:25.439Z,0.82
2019-05-15T05:22:58.374Z,1.10
2019-05-15T05:25:28.956Z,0.70
2019-05-15T05:28:00.043Z,0.90
2019-05-15T05:30:30.422Z,0.88
2019-05-15T05:33:01.053Z,1.10
2019-05-15T05:35:31.370Z,0.80
2019-05-15T05:38:03.437Z,0.90
2019-05-15T05:40:34.668Z,0.90
2019-05-15T05:43:05.007Z,0.98
2019-05-15T05:45:38.212Z,0.80
2019-05-15T05:48:08.809Z,0.88
2019-05-15T05:50:43.926Z,0.90
2019-05-15T05:53:12.665Z,1.00
2019-05-15T05:55:43.107Z,0.90
2019-05-15T05:58:14.216Z,0.70
2019-05-15T06:00:45.418Z,0.90
2019-05-15T06:03:15.833Z,0.80
2019-05-15T06:05:46.237Z,0.90
2019-05-15T06:08:19.440Z,1.00
2019-05-15T06:10:50.017Z,0.65
2019-05-15T06:13:21.542Z,0.88
2019-05-15T06:15:54.634Z,0.85
2019-05-15T06:18:27.992Z,1.00
2019-05-15T06:20:58.585Z,0.88
2019-05-15T06:23:34.824Z,0.88
2019-05-15T06:26:01.354Z,1.00
2019-05-15T06:28:32.428Z,0.88
2019-05-15T06:31:03.031Z,0.95
2019-05-15T06:33:33.335Z,0.85
2019-05-15T06:36:03.716Z,0.85
2019-05-15T06:38:34.000Z,0.90
2019-05-15T06:41:04.334Z,0.98
2019-05-15T06:43:38.654Z,1.07
2019-05-15T06:46:09.255Z,0.80
2019-05-15T06:48:39.613Z,0.80
2019-05-15T06:51:09.938Z,0.90
2019-05-15T06:53:40.264Z,1.10
2019-05-15T06:56:10.592Z,1.00
2019-05-15T06:58:40.966Z,0.90
2019-05-15T07:01:11.347Z,1.30
2019-05-15T07:03:41.787Z,1.27
2019-05-15T07:06:12.205Z,1.00
2019-05-15T07:08:43.399Z,0.80
2019-05-15T07:11:14.618Z,0.90
2019-05-15T07:13:48.481Z,1.17
2019-05-15T07:16:19.448Z,1.17
2019-05-15T07:18:50.637Z,0.98
2019-05-15T07:21:21.865Z,0.98
2019-05-15T07:23:52.301Z,1.00
2019-05-15T07:26:22.692Z,1.00
2019-05-15T07:28:53.738Z,0.98
2019-05-15T07:31:24.148Z,1.20
2019-05-15T07:33:54.453Z,1.15
2019-05-15T07:36:24.692Z,1.15
2019-05-15T07:38:57.793Z,0.70
2019-05-15T07:41:28.481Z,0.95
2019-05-15T07:43:58.867Z,0.88
2019-05-15T07:46:29.293Z,0.80
2019-05-15T07:49:00.906Z,0.90
2019-05-15T07:51:31.377Z,0.90
2019-05-15T07:54:02.743Z,0.80
2019-05-15T07:56:34.287Z,1.00
2019-05-15T07:59:04.813Z,0.80
2019-05-15T08:01:35.347Z,0.90
2019-05-15T08:04:22.690Z,1.07
2019-05-15T08:06:39.178Z,0.98
2019-05-15T08:09:10.521Z,0.85
2019-05-15T08:11:41.176Z,0.70
2019-05-15T08:14:11.488Z,0.70
2019-05-15T08:16:41.909Z,1.07
2019-05-15T08:19:12.344Z,1.02
2019-05-15T08:21:42.653Z,0.70
2019-05-15T08:24:12.989Z,0.90
2019-05-15T08:26:45.558Z,1.17
2019-05-15T08:29:19.320Z,0.93
2019-05-15T08:31:48.422Z,0.65
2019-05-15T08:34:19.736Z,0.70
2019-05-15T08:36:50.250Z,0.90
2019-05-15T08:39:20.676Z,0.60
2019-05-15T08:41:51.885Z,1.00
2019-05-15T08:44:22.366Z,1.00
2019-05-15T08:46:52.646Z,0.75
2019-05-15T08:49:23.006Z,0.75
2019-05-15T08:51:53.353Z,0.98
2019-05-15T08:54:23.850Z,0.90
2019-05-15T08:56:54.187Z,0.90
2019-05-15T08:59:24.529Z,0.90
2019-05-15T09:01:54.932Z,0.70
2019-05-15T09:04:31.550Z,0.53
2019-05-15T09:07:01.043Z,0.72
2019-05-15T09:09:29.302Z,0.60
2019-05-15T09:11:59.845Z,0.80
2019-05-15T09:14:30.287Z,0.95
2019-05-15T09:17:00.687Z,0.60
2019-05-15T09:19:31.061Z,0.75
2019-05-15T09:22:03.117Z,0.75
2019-05-15T09:24:33.391Z,0.80
2019-05-15T09:27:03.714Z,0.90
2019-05-15T09:29:34.043Z,0.90
2019-05-15T09:32:04.381Z,0.85
2019-05-15T09:34:48.035Z,0.80
2019-05-15T09:37:08.578Z,0.82
2019-05-15T09:39:39.354Z,0.90
2019-05-15T09:42:09.551Z,1.25
2019-05-15T09:44:40.013Z,0.90
2019-05-15T09:47:11.151Z,0.78
2019-05-15T09:49:42.654Z,0.90
2019-05-15T09:52:13.913Z,1.10
2019-05-15T09:54:45.086Z,1.00
2019-05-15T09:57:18.611Z,1.00
2019-05-15T09:59:49.312Z,0.90
2019-05-15T10:02:20.624Z,0.80
2019-05-15T10:05:05.525Z,0.82
2019-05-15T10:07:23.786Z,0.90
2019-05-15T10:09:55.041Z,0.80
2019-05-15T10:12:31.356Z,0.78
2019-05-15T10:14:59.338Z,0.90
2019-05-15T10:17:30.030Z,0.80
2019-05-15T10:20:01.263Z,1.15
2019-05-15T10:22:31.891Z,0.93
2019-05-15T10:25:03.298Z,0.85
2019-05-15T10:27:34.580Z,0.90
2019-05-15T10:30:06.201Z,1.20
2019-05-15T10:32:39.504Z,0.80
2019-05-15T10:35:24.574Z,1.20
2019-05-15T10:37:44.296Z,1.10
2019-05-15T10:40:14.777Z,0.88
2019-05-15T10:42:46.178Z,0.95
2019-05-15T10:45:19.278Z,0.90
2019-05-15T10:47:50.705Z,1.22
2019-05-15T10:50:22.224Z,2.08
2019-05-15T10:52:53.469Z,1.10
2019-05-15T10:55:24.817Z,0.90
2019-05-15T10:57:56.229Z,1.00
2019-05-15T11:00:28.582Z,1.10
2019-05-15T11:02:59.913Z,1.20
2019-05-15T11:05:44.675Z,1.10
2019-05-15T11:08:04.082Z,1.45
2019-05-15T11:10:38.011Z,1.42
2019-05-15T11:13:08.998Z,1.50
2019-05-15T11:15:42.530Z,1.05
2019-05-15T11:18:13.200Z,1.10
2019-05-15T11:20:44.393Z,1.00
2019-05-15T11:23:20.056Z,1.20
2019-05-15T11:25:50.673Z,1.15
2019-05-15T11:28:21.742Z,1.00
2019-05-15T11:30:52.626Z,1.00
2019-05-15T11:33:23.905Z,1.07
2019-05-15T11:36:00.457Z,1.70
2019-05-15T11:38:25.852Z,1.37
2019-05-15T11:40:56.048Z,1.35
2019-05-15T11:43:29.184Z,1.20
2019-05-15T11:45:59.194Z,1.25
2019-05-15T11:48:30.266Z,1.20
2019-05-15T11:51:02.352Z,1.25
2019-05-15T11:53:33.274Z,1.15
2019-05-15T11:56:04.293Z,1.90
2019-05-15T11:58:34.502Z,1.30
2019-05-15T12:01:04.452Z,1.20
2019-05-15T12:03:34.584Z,1.35
2019-05-15T12:06:15.820Z,1.20
2019-05-15T12:08:38.517Z,1.90
2019-05-15T12:11:11.855Z,1.42
2019-05-15T12:13:40.645Z,1.95
2019-05-15T12:16:10.614Z,1.72
2019-05-15T12:18:40.632Z,1.80
2019-05-15T12:21:11.113Z,1.37
2019-05-15T12:23:42.306Z,1.32
2019-05-15T12:26:12.309Z,1.20
2019-05-15T12:28:42.384Z,1.00
2019-05-15T12:31:12.407Z,1.02
2019-05-15T12:33:42.376Z,1.10
2019-05-15T12:36:12.659Z,1.30
2019-05-15T12:38:42.944Z,1.50
2019-05-15T13:01:29.399Z,1.32
2019-05-15T13:03:58.577Z,1.20
2019-05-15T13:06:28.814Z,1.40
2019-05-15T13:08:59.568Z,1.10
2019-05-15T13:11:29.810Z,1.35
2019-05-15T13:14:00.191Z,1.20
2019-05-15T13:16:30.224Z,1.30
2019-05-15T13:19:00.418Z,1.50
2019-05-15T13:21:30.558Z,1.07
2019-05-15T13:24:00.352Z,0.98
2019-05-15T13:26:30.262Z,1.25
2019-05-15T13:29:00.049Z,1.00
2019-05-15T13:31:30.416Z,1.40
2019-05-15T13:34:00.211Z,1.00
2019-05-15T13:36:30.737Z,1.15
2019-05-15T13:39:00.887Z,1.05
2019-05-15T13:41:32.287Z,1.05
2019-05-15T13:44:02.125Z,1.30
2019-05-15T13:46:32.975Z,1.80
2019-05-15T13:49:03.230Z,1.02
2019-05-15T13:51:33.404Z,1.00
2019-05-15T13:54:03.609Z,1.20
2019-05-15T13:56:33.468Z,1.17
2019-05-15T13:59:03.268Z,1.20
2019-05-15T14:01:33.379Z,1.30
2019-05-15T14:04:03.153Z,1.07
2019-05-15T14:06:32.973Z,1.30
2019-05-15T14:09:03.984Z,1.05
2019-05-15T14:11:33.954Z,1.15
2019-05-15T14:14:03.889Z,1.30
2019-05-15T14:16:34.008Z,1.30
2019-05-15T14:19:04.219Z,1.10
2019-05-15T14:21:38.065Z,1.10
2019-05-15T14:24:09.053Z,1.10
2019-05-15T14:26:39.116Z,1.20
2019-05-15T14:29:09.259Z,4.05
2019-05-15T14:31:39.645Z,3.02
2019-05-15T14:34:09.688Z,1.90
2019-05-15T14:36:40.594Z,1.50
2019-05-15T14:39:10.749Z,1.45
2019-05-15T14:41:40.560Z,1.42
2019-05-15T14:44:17.577Z,1.35
2019-05-15T14:46:42.868Z,2.22
2019-05-15T14:49:12.780Z,2.08
2019-05-15T14:51:43.407Z,2.10
2019-05-15T14:54:13.230Z,2.17
2019-05-15T14:56:43.109Z,1.50
2019-05-15T14:59:16.304Z,1.57
2019-05-15T15:01:46.125Z,1.40
2019-05-15T15:04:18.326Z,1.42
2019-05-15T15:06:48.769Z,1.50
2019-05-15T15:09:18.954Z,1.22
2019-05-15T15:11:49.221Z,1.40
2019-05-15T15:14:18.975Z,1.35
2019-05-15T15:16:49.770Z,1.55
2019-05-15T15:19:19.527Z,1.35
2019-05-15T15:21:49.321Z,1.40
2019-05-15T15:24:19.637Z,1.65
2019-05-15T15:26:49.492Z,1.32
2019-05-15T15:29:19.383Z,1.45
2019-05-15T15:31:50.497Z,1.60
2019-05-15T15:34:21.199Z,1.35
2019-05-15T15:36:51.995Z,1.35
2019-05-15T15:39:23.022Z,1.20
2019-05-15T15:41:53.527Z,1.30
2019-05-15T15:44:24.675Z,1.10
2019-05-15T15:46:55.365Z,1.20
2019-05-15T15:49:27.897Z,1.20
2019-05-15T15:51:58.530Z,1.10
2019-05-15T15:54:29.098Z,1.17
2019-05-15T15:56:59.755Z,1.50
2019-05-15T15:59:31.173Z,1.40
2019-05-15T16:02:02.153Z,1.25
2019-05-15T16:04:32.728Z,1.70
2019-05-15T16:07:03.322Z,1.75
2019-05-15T16:09:33.651Z,1.40
2019-05-15T16:12:04.424Z,1.70
2019-05-15T16:14:34.727Z,2.35
2019-05-15T16:17:04.627Z,1.55
2019-05-15T16:19:34.535Z,1.87
2019-05-15T16:22:08.625Z,1.30
2019-05-15T16:24:38.617Z,1.50
2019-05-15T16:27:09.594Z,1.52
2019-05-15T16:29:40.710Z,2.00
2019-05-15T16:32:10.639Z,2.95
2019-05-15T16:34:41.091Z,2.05
2019-05-15T16:37:11.508Z,2.02
2019-05-15T16:39:42.098Z,1.90
2019-05-15T16:42:12.722Z,1.65
2019-05-15T16:44:44.887Z,1.32
2019-05-15T16:47:14.856Z,1.70
2019-05-15T16:49:50.862Z,1.70
2019-05-15T16:52:21.803Z,1.80
2019-05-15T16:54:51.933Z,1.90
2019-05-15T16:57:22.849Z,1.45
2019-05-15T16:59:53.495Z,1.52
2019-05-15T17:02:23.441Z,1.37
2019-05-15T17:04:54.369Z,1.85
2019-05-15T17:07:25.699Z,1.62
2019-05-15T17:09:55.599Z,1.45
2019-05-15T17:12:27.736Z,1.82
2019-05-15T17:14:58.437Z,1.55
2019-05-15T17:17:29.467Z,1.92
2019-05-15T17:20:02.118Z,1.50
2019-05-15T17:22:37.950Z,1.60
2019-05-15T17:25:09.184Z,1.67
2019-05-15T17:27:41.814Z,1.52
2019-05-15T17:30:13.036Z,1.50
2019-05-15T17:32:43.155Z,1.62
2019-05-15T17:35:13.139Z,2.00
2019-05-15T17:37:43.104Z,1.50
2019-05-15T17:40:13.420Z,1.50
2019-05-15T17:42:44.816Z,1.77
2019-05-15T17:45:15.881Z,1.40
2019-05-15T17:47:48.766Z,1.55
2019-05-15T17:50:21.083Z,1.57
2019-05-15T17:52:51.655Z,1.75
2019-05-15T17:55:22.316Z,1.37
2019-05-15T17:57:57.226Z,1.50
2019-05-15T18:00:28.670Z,1.40
2019-05-15T18:03:00.231Z,1.50
2019-05-15T18:05:31.274Z,1.75
2019-05-15T18:08:02.677Z,1.62
2019-05-15T18:10:33.377Z,1.85
2019-05-15T18:13:05.228Z,1.70
2019-05-15T18:15:38.518Z,1.85
2019-05-15T18:18:09.531Z,1.62
2019-05-15T18:20:42.346Z,1.50
2019-05-15T18:23:12.733Z,1.72
2019-05-15T18:25:42.616Z,1.82
2019-05-15T18:28:12.507Z,1.70
2019-05-15T18:30:43.110Z,1.90
2019-05-15T18:33:13.333Z,1.52
2019-05-15T18:35:43.559Z,2.08
2019-05-15T18:38:13.454Z,2.10
2019-05-15T18:40:43.732Z,1.80
2019-05-15T18:43:13.717Z,1.70
2019-05-15T18:45:43.965Z,1.87
2019-05-15T18:48:14.114Z,1.62
2019-05-15T18:50:44.288Z,1.98
2019-05-15T18:53:14.598Z,1.80
2019-05-15T18:55:44.623Z,1.72
2019-05-15T18:58:14.923Z,2.02
2019-05-15T19:00:45.213Z,1.90
2019-05-15T19:03:20.371Z,1.77
2019-05-15T19:05:47.785Z,2.00
2019-05-15T19:08:18.789Z,1.55
2019-05-15T19:10:50.971Z,1.90
2019-05-15T19:13:21.384Z,1.72
2019-05-15T19:15:51.341Z,1.87
2019-05-15T19:18:21.342Z,1.82
2019-05-15T19:20:51.653Z,1.60
2019-05-15T19:23:22.060Z,1.35
2019-05-15T19:25:51.938Z,1.80
2019-05-15T19:28:22.370Z,1.50
2019-05-15T19:30:52.960Z,1.90
2019-05-15T19:33:34.408Z,1.95
2019-05-15T19:35:54.530Z,2.15
2019-05-15T19:38:24.537Z,1.50
2019-05-15T19:40:55.253Z,1.72
2019-05-15T19:43:28.471Z,1.55
2019-05-15T19:45:58.540Z,1.40
2019-05-15T19:48:28.519Z,1.22
2019-05-15T19:50:58.398Z,1.50
2019-05-15T19:53:28.426Z,1.60
2019-05-15T19:55:58.304Z,1.22
2019-05-15T19:58:29.807Z,1.12
2019-05-15T20:00:59.839Z,1.52
2019-05-15T20:03:29.730Z,1.47
2019-05-15T20:06:01.743Z,1.45
2019-05-15T20:08:32.651Z,1.22
2019-05-15T20:11:04.256Z,1.40
2019-05-15T20:13:34.458Z,1.17
2019-05-15T20:16:04.272Z,1.20
2019-05-15T20:18:34.447Z,1.40
2019-05-15T20:21:04.290Z,1.47
2019-05-15T20:23:35.059Z,1.40
2019-05-15T20:26:05.308Z,1.40
2019-05-15T20:28:35.467Z,1.17
2019-05-15T20:31:07.770Z,1.60
2019-05-15T20:33:37.850Z,1.40
2019-05-15T20:36:09.230Z,1.67
2019-05-15T20:38:40.547Z,3.70
2019-05-15T20:41:10.955Z,1.50
2019-05-15T20:43:41.066Z,1.60
2019-05-15T20:46:11.622Z,1.25
2019-05-15T20:48:41.711Z,1.37
2019-05-15T20:51:12.000Z,1.50
2019-05-15T20:53:42.183Z,1.42
2019-05-15T20:56:12.253Z,1.30
2019-05-15T20:58:42.911Z,1.77
2019-05-15T21:01:13.896Z,2.02
2019-05-15T21:03:43.862Z,1.82
2019-05-15T21:06:14.399Z,1.50
2019-05-15T21:08:44.615Z,1.50
2019-05-15T21:11:17.968Z,1.60
2019-05-15T21:13:49.083Z,1.40
2019-05-15T21:16:19.470Z,1.70
2019-05-15T21:18:50.209Z,1.70
2019-05-15T21:21:21.770Z,2.12
2019-05-15T21:23:53.234Z,2.00
2019-05-15T21:26:23.334Z,2.05
2019-05-15T21:28:53.567Z,1.80
2019-05-15T21:31:23.605Z,3.58
2019-05-15T21:33:53.876Z,1.72
2019-05-15T21:36:24.538Z,2.20
2019-05-15T21:38:54.591Z,2.02
2019-05-15T21:41:24.733Z,2.12
2019-05-15T21:43:54.679Z,1.57
2019-05-15T21:46:25.030Z,1.70
2019-05-15T21:48:54.920Z,1.87
2019-05-15T21:51:24.712Z,1.40
2019-05-15T21:53:54.810Z,2.10
2019-05-15T21:56:24.920Z,1.45
2019-05-15T21:58:55.163Z,1.65
2019-05-15T22:01:28.087Z,1.47
2019-05-15T22:03:58.947Z,1.70
2019-05-15T22:06:29.390Z,1.52
2019-05-15T22:09:00.756Z,1.75
2019-05-15T22:11:32.619Z,1.82
2019-05-15T22:14:02.937Z,1.45
2019-05-15T22:16:33.039Z,1.20
2019-05-15T22:19:03.246Z,1.40
2019-05-15T22:21:33.702Z,1.60
2019-05-15T22:24:04.604Z,1.52
2019-05-15T22:26:34.719Z,1.40
2019-05-15T22:29:04.899Z,1.55
2019-05-15T22:31:34.994Z,1.42
2019-05-15T22:34:04.906Z,1.30
2019-05-15T22:36:35.012Z,1.30
2019-05-15T22:39:08.428Z,1.40
2019-05-15T22:41:38.885Z,1.50
2019-05-15T22:44:10.319Z,1.32
2019-05-15T22:46:40.715Z,1.37
2019-05-15T22:49:11.779Z,1.22
2019-05-15T22:51:42.220Z,1.20
2019-05-15T22:54:12.402Z,1.20
2019-05-15T22:56:44.377Z,1.40
2019-05-15T22:59:14.617Z,1.77
2019-05-15T23:01:44.580Z,1.60
2019-05-15T23:04:15.572Z,1.20
2019-05-15T23:06:45.584Z,1.50
2019-05-15T23:09:18.293Z,1.60
2019-05-15T23:11:48.562Z,1.30
2019-05-15T23:14:20.099Z,1.80
2019-05-15T23:16:50.222Z,2.00
2019-05-15T23:19:20.442Z,1.67
2019-05-15T23:21:51.542Z,1.90
2019-05-15T23:24:22.867Z,1.77
2019-05-15T23:26:53.835Z,1.47
2019-05-15T23:29:25.479Z,1.40
2019-05-15T23:31:58.408Z,1.42
2019-05-15T23:34:30.019Z,1.50
2019-05-15T23:37:01.065Z,1.57
2019-05-15T23:39:33.423Z,1.22
2019-05-15T23:42:04.669Z,1.45
2019-05-15T23:44:35.555Z,1.70
2019-05-15T23:47:06.673Z,1.57
2019-05-15T23:49:38.357Z,1.42
2019-05-15T23:52:09.030Z,1.40
2019-05-15T23:54:40.818Z,1.25
2019-05-15T23:57:11.763Z,1.32
2019-05-15T23:59:43.357Z,1.50
